Slovan, Pennsylvania
Current Conditions -  °F | °C
As of 5:51 PM on Thursday 27 Nov 2014 (Local Time) from KPIT Reporting Station
Broken Clouds Broken Clouds  
Wind Chill: 22°   Ceiling: 3700
Heat Index: 30°   Visibility: 10mi
Dew Point: 24°   Wind: 9mph
Humidity: 79%   Direction: 270°W
Pressure: 30.15"   Gusts: NA
Location:  40.36°N, 80.39°W
Report Text: KPIT 272251Z 27008KT 10SM FEW023 BKN037 BKN075 M01/M04 A3015 RMK AO2 SNE01 SLP231 P0000 T10111044
Loading
Personal Weather Stations






























Interactive Weather Map New forecast layout! Learn more

10-Day Weather Forecast

Advertisements
Track Severe Weather on mobile